Time;durP1;ratioP1;P1;durP2;ratioP2;P2;SDS_P1;SDS_P2;PMS_P1;PMS_P2;Temp;Humidity;BMP_temperature;BMP_pressure;BME280_temperature;BME280_humidity;BME280_pressure;Samples;Min_cycle;Max_cycle;Signal;HPM_P1;HPM_P2
2023/12/09 00:00:38;;;;;;;10.07;3.90;;;;;;;5.01;100.00;97093.16;5035488;28;20063;-61
2023/12/09 00:03:07;;;;;;;13.20;4.22;;;;;;;5.01;100.00;97085.13;5028997;28;20042;-61
2023/12/09 00:05:34;;;;;;;10.02;3.95;;;;;;;5.00;100.00;97092.31;5043591;28;20040;-61
2023/12/09 00:08:01;;;;;;;8.27;3.58;;;;;;;4.99;100.00;97089.88;5034619;28;20051;-61
2023/12/09 00:10:28;;;;;;;8.80;3.90;;;;;;;4.95;100.00;97089.50;5045054;28;20042;-61
2023/12/09 00:12:54;;;;;;;11.18;3.70;;;;;;;4.94;100.00;97094.03;5035973;28;20118;-61
2023/12/09 00:15:21;;;;;;;10.00;3.35;;;;;;;4.95;100.00;97097.56;5031306;28;20037;-61
2023/12/09 00:17:48;;;;;;;8.68;4.20;;;;;;;4.89;100.00;97087.69;5042272;28;20061;-61
2023/12/09 00:20:15;;;;;;;10.50;3.55;;;;;;;4.85;100.00;97097.22;5034673;28;20512;-61
2023/12/09 00:22:41;;;;;;;13.65;3.58;;;;;;;4.90;100.00;97105.44;5033091;28;20382;-61
2023/12/09 00:25:08;;;;;;;12.13;3.85;;;;;;;4.92;100.00;97101.50;5035644;28;20671;-61
2023/12/09 00:27:35;;;;;;;10.07;4.90;;;;;;;4.97;100.00;97097.34;5050223;28;20124;-61
2023/12/09 00:30:01;;;;;;;8.80;4.05;;;;;;;4.97;100.00;97094.66;5033703;28;20060;-61
2023/12/09 00:32:28;;;;;;;14.20;3.85;;;;;;;4.91;100.00;97096.34;5043877;28;20527;-61
2023/12/09 00:34:55;;;;;;;10.73;3.97;;;;;;;4.89;100.00;97095.75;5029757;28;20654;-61
2023/12/09 00:37:21;;;;;;;11.30;4.15;;;;;;;4.91;100.00;97096.34;5037337;28;20049;-61
2023/12/09 00:39:48;;;;;;;10.27;4.20;;;;;;;5.03;100.00;97101.78;5040047;28;20052;-61
2023/12/09 00:42:14;;;;;;;8.77;4.40;;;;;;;5.08;100.00;97091.19;5036606;28;20080;-61
2023/12/09 00:44:41;;;;;;;9.35;5.03;;;;;;;5.11;100.00;97096.13;5035132;28;20121;-61
2023/12/09 00:47:07;;;;;;;12.63;4.50;;;;;;;5.21;100.00;97095.63;5039277;28;20111;-61
2023/12/09 00:49:34;;;;;;;11.25;4.82;;;;;;;5.19;100.00;97084.28;5045498;28;20069;-62
2023/12/09 00:52:01;;;;;;;10.95;4.13;;;;;;;5.15;100.00;97091.13;5034573;28;20162;-61
2023/12/09 00:54:29;;;;;;;9.45;4.47;;;;;;;5.14;100.00;97089.50;5052869;28;20052;-61
2023/12/09 00:56:56;;;;;;;8.27;4.60;;;;;;;4.96;100.00;97093.81;5046785;28;20045;-61
2023/12/09 00:59:22;;;;;;;11.90;4.32;;;;;;;5.00;100.00;97102.22;5040316;28;20060;-61
2023/12/09 01:01:49;;;;;;;8.82;4.20;;;;;;;5.07;100.00;97105.69;5036390;28;20412;-61
2023/12/09 01:04:15;;;;;;;11.07;4.18;;;;;;;5.10;100.00;97104.41;5042335;28;20047;-61
2023/12/09 01:06:42;;;;;;;9.75;4.50;;;;;;;5.10;100.00;97104.41;5051766;28;20071;-61
2023/12/09 01:09:08;;;;;;;9.70;3.95;;;;;;;5.09;100.00;97106.28;5049224;28;20040;-61
2023/12/09 01:11:35;;;;;;;11.60;4.40;;;;;;;5.16;100.00;97120.44;5041138;28;20076;-61
2023/12/09 01:14:01;;;;;;;7.63;3.97;;;;;;;5.15;100.00;97115.28;5042953;28;20041;-61
2023/12/09 01:16:28;;;;;;;13.80;5.20;;;;;;;5.05;100.00;97115.81;5043698;28;20044;-61
2023/12/09 01:18:55;;;;;;;11.70;4.70;;;;;;;4.90;100.00;97116.19;5038373;28;20051;-61
2023/12/09 01:21:21;;;;;;;8.30;4.13;;;;;;;4.85;100.00;97114.16;5048914;28;20040;-61
2023/12/09 01:23:48;;;;;;;10.05;4.63;;;;;;;4.89;100.00;97117.19;5041896;28;20502;-61
2023/12/09 01:26:15;;;;;;;8.27;4.25;;;;;;;5.01;100.00;97117.31;5048920;28;20071;-61
2023/12/09 01:28:41;;;;;;;11.32;3.92;;;;;;;5.08;100.00;97116.19;5042178;28;20046;-61
2023/12/09 01:31:08;;;;;;;8.68;3.95;;;;;;;5.07;100.00;97113.72;5042356;28;20132;-61
2023/12/09 01:33:34;;;;;;;8.18;4.15;;;;;;;5.10;100.00;97120.50;5039418;28;20044;-61
2023/12/09 01:36:01;;;;;;;6.80;4.00;;;;;;;5.13;100.00;97130.81;5039295;28;20609;-61
2023/12/09 01:38:27;;;;;;;8.48;4.00;;;;;;;5.20;100.00;97134.25;5035117;28;21293;-61
2023/12/09 01:40:54;;;;;;;8.27;4.38;;;;;;;5.24;100.00;97134.63;5022739;28;20052;-60
2023/12/09 01:43:22;;;;;;;10.18;4.50;;;;;;;5.31;100.00;97138.84;5036345;28;20033;-61
2023/12/09 01:45:51;;;;;;;11.20;5.03;;;;;;;5.20;100.00;97142.31;5029808;28;20051;-61
2023/12/09 01:48:18;;;;;;;10.48;4.93;;;;;;;5.10;100.00;97133.94;5038552;28;20116;-61
2023/12/09 01:50:46;;;;;;;9.95;4.90;;;;;;;5.05;100.00;97139.97;5035291;28;20114;-61
2023/12/09 01:53:13;;;;;;;9.27;4.47;;;;;;;4.91;100.00;97147.31;5045942;28;20124;-61
2023/12/09 01:55:41;;;;;;;12.32;5.25;;;;;;;4.85;100.00;97153.56;5035713;28;20055;-61
2023/12/09 01:58:09;;;;;;;12.80;4.70;;;;;;;4.88;100.00;97155.81;5038929;28;21341;-61
2023/12/09 02:00:38;;;;;;;8.57;4.00;;;;;;;4.88;100.00;97164.69;5031431;28;20056;-61
2023/12/09 02:03:05;;;;;;;8.15;3.78;;;;;;;4.88;100.00;97167.38;5041983;28;20128;-61
2023/12/09 02:05:32;;;;;;;6.85;3.13;;;;;;;4.90;100.00;97173.31;5042877;28;20035;-61
2023/12/09 02:07:58;;;;;;;6.13;2.92;;;;;;;4.88;100.00;97171.91;5044157;28;20044;-61
2023/12/09 02:10:27;;;;;;;9.18;3.72;;;;;;;4.90;100.00;97167.16;5037251;28;20045;-61
2023/12/09 02:13:19;;;;;;;9.98;4.38;;;;;;;4.88;100.00;97161.19;5037640;28;20041;-61
2023/12/09 02:16:09;;;;;;;10.95;4.43;;;;;;;4.89;100.00;97165.50;5035804;28;20170;-61
2023/12/09 02:18:39;;;;;;;7.15;3.15;;;;;;;4.91;100.00;97158.88;5033833;28;20041;-61
2023/12/09 02:21:05;;;;;;;8.38;3.38;;;;;;;4.89;100.00;97152.06;5037395;28;20476;-61
2023/12/09 02:23:32;;;;;;;8.07;3.42;;;;;;;4.79;100.00;97156.09;5034375;28;20466;-61
2023/12/09 02:26:07;;;;;;;7.88;3.35;;;;;;;4.74;100.00;97153.25;5038216;28;20489;-61
2023/12/09 02:28:38;;;;;;;7.07;3.45;;;;;;;4.81;100.00;97148.66;5036134;28;20060;-61
2023/12/09 02:31:13;;;;;;;6.25;3.20;;;;;;;4.85;100.00;97145.50;5035019;28;20429;-62
2023/12/09 02:33:43;;;;;;;7.75;3.35;;;;;;;4.72;100.00;97138.41;5035240;28;20128;-61
2023/12/09 02:36:20;;;;;;;7.53;3.40;;;;;;;4.75;100.00;97138.78;5040644;28;20113;-61
2023/12/09 02:38:49;;;;;;;9.30;3.50;;;;;;;4.77;100.00;97141.25;5040679;28;20064;-61
2023/12/09 02:41:16;;;;;;;8.85;3.95;;;;;;;4.90;100.00;97137.66;5022356;28;20060;-61
2023/12/09 02:43:46;;;;;;;9.23;3.40;;;;;;;4.84;100.00;97128.63;5037269;28;20041;-61
2023/12/09 02:46:13;;;;;;;6.00;3.20;;;;;;;4.79;100.00;97115.84;5031419;28;20047;-61
2023/12/09 02:48:40;;;;;;;7.32;3.03;;;;;;;4.77;100.00;97122.47;5033088;28;20045;-61
2023/12/09 02:51:07;;;;;;;11.07;3.40;;;;;;;4.66;100.00;97115.97;5038373;28;20045;-61
2023/12/09 02:53:34;;;;;;;7.30;3.40;;;;;;;4.67;100.00;97110.41;5040818;28;20049;-61
2023/12/09 02:56:00;;;;;;;6.18;3.65;;;;;;;4.72;100.00;97115.09;5032185;28;20099;-61
2023/12/09 02:58:27;;;;;;;12.07;3.97;;;;;;;4.77;100.00;97107.22;5026086;28;20068;-61
2023/12/09 03:00:53;;;;;;;10.25;3.63;;;;;;;4.78;100.00;97103.50;5029149;28;20041;-61
2023/12/09 03:03:20;;;;;;;6.68;3.75;;;;;;;4.76;100.00;97105.56;5043279;28;20191;-62
2023/12/09 03:05:46;;;;;;;8.63;3.50;;;;;;;4.63;100.00;97101.16;5039718;28;20045;-61
2023/12/09 03:08:13;;;;;;;10.30;3.30;;;;;;;4.63;100.00;97093.09;5042133;28;20037;-61
2023/12/09 03:10:40;;;;;;;9.40;4.40;;;;;;;4.59;100.00;97091.91;5039086;28;20041;-61
2023/12/09 03:13:06;;;;;;;10.95;3.83;;;;;;;4.60;100.00;97096.22;5033722;28;20050;-61
2023/12/09 03:15:32;;;;;;;6.47;3.47;;;;;;;4.51;100.00;97082.28;5037855;28;20037;-61
2023/12/09 03:17:59;;;;;;;9.65;3.28;;;;;;;4.46;100.00;97078.63;5044175;28;20049;-61
2023/12/09 03:20:26;;;;;;;9.30;3.75;;;;;;;4.40;100.00;97083.00;5039572;28;20124;-61
2023/12/09 03:22:52;;;;;;;8.93;3.33;;;;;;;4.27;100.00;97086.59;5033225;28;20052;-61
2023/12/09 03:25:19;;;;;;;7.53;3.85;;;;;;;4.05;100.00;97089.63;5038896;28;20037;-61
2023/12/09 03:27:45;;;;;;;9.02;3.53;;;;;;;4.07;100.00;97086.75;5029906;28;20088;-61
2023/12/09 03:30:12;;;;;;;5.57;3.05;;;;;;;3.92;100.00;97090.56;5038855;28;20420;-61
2023/12/09 03:32:39;;;;;;;6.75;2.88;;;;;;;3.70;100.00;97085.53;5035230;28;20045;-61
2023/12/09 03:35:07;;;;;;;9.27;3.83;;;;;;;3.50;100.00;97081.09;5034881;28;20038;-61
2023/12/09 03:37:33;;;;;;;6.90;3.22;;;;;;;3.25;100.00;97081.81;5031787;28;20118;-61
2023/12/09 03:40:00;;;;;;;7.47;3.47;;;;;;;3.33;100.00;97080.78;5036821;28;20057;-61
2023/12/09 03:42:27;;;;;;;6.05;2.83;;;;;;;3.25;100.00;97079.16;5030192;28;20146;-61
2023/12/09 03:44:54;;;;;;;4.80;2.92;;;;;;;2.99;100.00;97072.06;5037305;28;20132;-61
2023/12/09 03:47:20;;;;;;;9.13;3.15;;;;;;;2.90;100.00;97081.31;5036260;28;20052;-61
2023/12/09 03:49:55;;;;;;;6.80;3.53;;;;;;;2.78;100.00;97084.66;5032964;28;20046;-60
2023/12/09 03:52:22;;;;;;;8.55;3.40;;;;;;;2.68;100.00;97092.25;5037104;28;20037;-60
2023/12/09 03:54:48;;;;;;;7.00;3.30;;;;;;;2.54;100.00;97088.81;5037605;28;20099;-61
2023/12/09 03:57:15;;;;;;;8.05;3.15;;;;;;;2.42;100.00;97089.41;5035139;28;20042;-60
2023/12/09 03:59:42;;;;;;;8.20;3.40;;;;;;;2.38;100.00;97092.69;5034211;28;20029;-61
2023/12/09 04:02:09;;;;;;;8.10;3.30;;;;;;;2.39;100.00;97097.84;5035959;28;20126;-61
2023/12/09 04:04:39;;;;;;;8.57;3.88;;;;;;;2.42;100.00;97105.47;5030598;28;20056;-61
2023/12/09 04:07:06;;;;;;;6.47;3.08;;;;;;;2.22;100.00;97089.44;5038445;28;20045;-61
2023/12/09 04:09:33;;;;;;;9.05;3.50;;;;;;;2.23;100.00;97095.56;5028213;28;20044;-61
2023/12/09 04:12:00;;;;;;;9.95;3.95;;;;;;;2.25;100.00;97098.88;5038064;28;20045;-61
2023/12/09 04:14:26;;;;;;;8.45;3.92;;;;;;;2.25;100.00;97106.91;5032800;28;20056;-60
2023/12/09 04:16:53;;;;;;;7.50;3.50;;;;;;;2.30;100.00;97113.28;5040140;28;20080;-60
2023/12/09 04:19:19;;;;;;;8.13;3.63;;;;;;;2.44;100.00;97126.63;5036126;28;20045;-60
2023/12/09 04:21:46;;;;;;;9.60;3.78;;;;;;;2.55;100.00;97122.53;5036665;28;20440;-60
2023/12/09 04:24:13;;;;;;;10.55;4.53;;;;;;;2.82;100.00;97150.06;5037202;28;20038;-60
2023/12/09 04:26:40;;;;;;;13.05;4.90;;;;;;;3.07;100.00;97153.91;5033679;28;20040;-60
2023/12/09 04:29:06;;;;;;;7.88;3.90;;;;;;;3.27;100.00;97164.56;5033334;28;20171;-60
2023/12/09 04:31:33;;;;;;;10.25;4.93;;;;;;;3.47;100.00;97148.44;5042649;28;20625;-60
2023/12/09 04:34:00;;;;;;;8.98;4.40;;;;;;;3.67;100.00;97131.47;5038594;28;20041;-61
2023/12/09 04:36:26;;;;;;;9.18;4.18;;;;;;;3.78;100.00;97119.28;5033627;28;20037;-60
2023/12/09 04:38:53;;;;;;;9.10;4.20;;;;;;;3.93;100.00;97116.31;5032711;28;20056;-60
2023/12/09 04:41:19;;;;;;;8.52;3.97;;;;;;;4.10;100.00;97100.56;5042333;28;20037;-60
2023/12/09 04:43:46;;;;;;;9.15;3.83;;;;;;;4.17;100.00;97105.84;5030393;28;20095;-61
2023/12/09 04:46:12;;;;;;;8.52;3.42;;;;;;;4.27;100.00;97087.41;5046392;28;20082;-60
2023/12/09 04:48:39;;;;;;;8.35;4.20;;;;;;;4.32;100.00;97097.50;5040246;28;20048;-60
2023/12/09 04:51:06;;;;;;;11.60;4.13;;;;;;;4.18;100.00;97079.88;5030857;28;20546;-60
2023/12/09 04:53:33;;;;;;;8.00;3.95;;;;;;;4.14;100.00;97104.44;5026323;28;20037;-60
2023/12/09 04:55:59;;;;;;;10.10;4.10;;;;;;;4.14;100.00;97095.56;5034628;28;20540;-60
2023/12/09 04:58:26;;;;;;;8.25;4.00;;;;;;;4.13;100.00;97096.59;5030407;28;20052;-60
2023/12/09 05:00:52;;;;;;;8.57;4.50;;;;;;;4.10;100.00;97091.69;5033965;28;20714;-60
2023/12/09 05:03:19;;;;;;;11.43;4.57;;;;;;;4.08;100.00;97094.56;5023436;28;20548;-60
2023/12/09 05:05:47;;;;;;;8.25;3.88;;;;;;;4.14;100.00;97090.19;5035388;28;20040;-60
2023/12/09 05:08:13;;;;;;;10.77;3.88;;;;;;;4.21;100.00;97079.44;5035326;28;20041;-60
2023/12/09 05:10:40;;;;;;;10.93;4.40;;;;;;;4.25;100.00;97084.16;5041083;28;20041;-60
2023/12/09 05:13:06;;;;;;;9.65;4.40;;;;;;;4.13;100.00;97078.66;5044626;28;20047;-60
2023/12/09 05:15:33;;;;;;;8.88;3.97;;;;;;;4.08;100.00;97077.66;5035154;28;20041;-61
2023/12/09 05:18:00;;;;;;;10.93;4.30;;;;;;;4.09;100.00;97076.66;5040221;28;20069;-61
2023/12/09 05:20:26;;;;;;;10.63;4.75;;;;;;;4.05;100.00;97070.06;5028119;28;20045;-61
2023/12/09 05:22:53;;;;;;;8.82;4.93;;;;;;;4.08;100.00;97069.63;5034491;28;20033;-61
2023/12/09 05:25:19;;;;;;;8.85;4.60;;;;;;;4.11;100.00;97066.50;5037018;28;20044;-60
2023/12/09 05:27:46;;;;;;;8.98;4.50;;;;;;;4.12;100.00;97044.88;5037311;28;20091;-61
2023/12/09 05:30:13;;;;;;;10.10;4.38;;;;;;;4.09;100.00;97047.97;5036644;28;20041;-61
2023/12/09 05:32:40;;;;;;;11.88;4.70;;;;;;;4.07;100.00;97039.34;5043268;28;20042;-61
2023/12/09 05:35:07;;;;;;;8.63;4.60;;;;;;;4.07;100.00;97030.47;5033242;28;20049;-61
2023/12/09 05:37:33;;;;;;;6.78;4.25;;;;;;;4.12;100.00;97033.31;5039542;28;20642;-61
2023/12/09 05:40:00;;;;;;;8.80;5.13;;;;;;;4.13;100.00;97038.47;5044517;28;20065;-61
2023/12/09 05:42:26;;;;;;;6.70;3.78;;;;;;;4.09;100.00;97039.13;5037902;28;20038;-61
2023/12/09 05:44:53;;;;;;;8.60;4.95;;;;;;;4.05;100.00;97044.09;5037518;28;20556;-61
2023/12/09 05:47:20;;;;;;;12.02;4.07;;;;;;;4.14;100.00;97050.00;5032910;28;20041;-61
2023/12/09 05:49:46;;;;;;;8.80;4.88;;;;;;;4.07;100.00;97036.66;5030367;28;20037;-61
2023/12/09 05:52:13;;;;;;;7.90;4.05;;;;;;;4.11;100.00;97040.56;5043245;28;20041;-61
2023/12/09 05:54:40;;;;;;;8.50;4.30;;;;;;;4.14;100.00;97036.63;5029441;28;20042;-61
2023/12/09 05:57:06;;;;;;;8.70;4.28;;;;;;;4.08;100.00;97040.97;5039644;28;20033;-61
2023/12/09 05:59:33;;;;;;;10.77;4.20;;;;;;;4.12;100.00;97036.00;5038631;28;20095;-61
2023/12/09 06:01:59;;;;;;;9.45;4.10;;;;;;;4.24;100.00;97036.13;5043206;28;20059;-61
2023/12/09 06:04:26;;;;;;;8.38;3.83;;;;;;;4.27;100.00;97032.97;5040856;28;20045;-61
2023/12/09 06:06:52;;;;;;;9.82;4.45;;;;;;;4.31;100.00;97030.72;5041138;28;20121;-61
2023/12/09 06:09:19;;;;;;;7.45;3.58;;;;;;;4.39;100.00;97036.59;5042160;28;20041;-61
2023/12/09 06:11:46;;;;;;;8.75;4.47;;;;;;;4.46;100.00;97035.72;5040662;28;20125;-61
2023/12/09 06:14:12;;;;;;;9.98;4.10;;;;;;;4.38;100.00;97024.22;5046368;28;20045;-61
2023/12/09 06:16:39;;;;;;;10.93;4.40;;;;;;;4.21;100.00;97025.84;5041086;28;20046;-61
2023/12/09 06:19:05;;;;;;;8.65;3.85;;;;;;;4.06;100.00;97027.00;5034401;28;20515;-61
2023/12/09 06:21:32;;;;;;;8.50;3.63;;;;;;;4.08;100.00;97024.91;5041999;28;20689;-61
2023/12/09 06:23:58;;;;;;;7.10;3.58;;;;;;;4.00;100.00;97026.00;5036253;28;20099;-61
2023/12/09 06:26:25;;;;;;;9.80;3.90;;;;;;;3.91;100.00;97040.72;5041412;28;20024;-61
2023/12/09 06:28:51;;;;;;;8.13;4.57;;;;;;;3.88;100.00;97031.22;5041589;28;20049;-61
2023/12/09 06:31:18;;;;;;;8.93;4.43;;;;;;;3.87;100.00;97024.22;5049759;28;20434;-61
2023/12/09 06:33:45;;;;;;;11.80;4.75;;;;;;;3.93;100.00;97011.00;5041163;28;20037;-61
2023/12/09 06:36:12;;;;;;;8.90;4.40;;;;;;;3.98;100.00;97005.84;5038269;28;21213;-61
2023/12/09 06:38:39;;;;;;;6.60;3.45;;;;;;;3.90;100.00;97004.22;5037410;28;20037;-61
2023/12/09 06:41:07;;;;;;;8.07;4.03;;;;;;;3.89;100.00;97024.03;5037519;28;20043;-61
2023/12/09 06:43:33;;;;;;;8.18;4.07;;;;;;;4.00;100.00;97017.13;5036303;28;20053;-61
2023/12/09 06:46:01;;;;;;;7.95;4.57;;;;;;;3.98;100.00;97013.88;5039855;28;20508;-60
2023/12/09 06:48:27;;;;;;;7.80;3.80;;;;;;;3.90;100.00;97014.94;5028297;28;20499;-61
2023/12/09 06:50:54;;;;;;;9.35;4.00;;;;;;;3.90;100.00;97006.91;5046419;28;20497;-61
2023/12/09 06:53:21;;;;;;;9.05;4.38;;;;;;;3.86;100.00;97006.53;5033489;28;20098;-61
2023/12/09 06:55:47;;;;;;;8.68;4.40;;;;;;;3.81;100.00;97001.00;5044790;28;20607;-61
2023/12/09 06:58:16;;;;;;;7.88;4.40;;;;;;;3.83;100.00;97000.81;5042787;28;20036;-60
2023/12/09 07:00:43;;;;;;;11.07;4.00;;;;;;;3.87;100.00;97004.69;5038292;28;20592;-60
2023/12/09 07:03:11;;;;;;;9.15;4.35;;;;;;;3.87;100.00;97007.38;5038952;28;20505;-58
2023/12/09 07:05:38;;;;;;;7.90;4.38;;;;;;;3.89;100.00;97013.31;5029330;28;20051;-59
2023/12/09 07:08:04;;;;;;;7.97;4.15;;;;;;;3.90;100.00;97014.94;5036757;28;20060;-59
2023/12/09 07:10:31;;;;;;;8.75;3.70;;;;;;;3.94;100.00;97004.63;5047112;28;20048;-59
2023/12/09 07:12:57;;;;;;;8.63;3.63;;;;;;;3.93;100.00;97011.84;5030085;28;20038;-59
2023/12/09 07:15:24;;;;;;;9.88;3.55;;;;;;;3.90;100.00;97010.41;5039641;28;20040;-60
2023/12/09 07:17:50;;;;;;;8.27;3.38;;;;;;;3.87;100.00;97007.38;5045015;28;20048;-59
2023/12/09 07:20:17;;;;;;;8.02;4.07;;;;;;;3.85;100.00;97004.91;5045236;28;20143;-59
2023/12/09 07:22:44;;;;;;;10.02;4.30;;;;;;;3.87;100.00;97023.44;5040734;28;20091;-62
2023/12/09 07:25:10;;;;;;;7.72;3.50;;;;;;;3.87;100.00;97020.75;5047908;28;20044;-61
2023/12/09 07:27:37;;;;;;;6.13;3.47;;;;;;;3.88;100.00;97027.75;5036221;28;20045;-61
2023/12/09 07:30:05;;;;;;;8.32;3.25;;;;;;;3.88;100.00;97014.34;5039424;28;20075;-61
2023/12/09 07:32:32;;;;;;;6.88;3.60;;;;;;;3.92;100.00;97018.22;5031412;28;20057;-61
2023/12/09 07:34:59;;;;;;;7.38;4.28;;;;;;;3.93;100.00;97017.19;5032978;28;20115;-59
2023/12/09 07:37:25;;;;;;;11.30;4.28;;;;;;;3.97;100.00;97017.56;5034829;28;20044;-59
2023/12/09 07:39:52;;;;;;;7.78;3.55;;;;;;;3.96;100.00;97018.59;5036674;28;20049;-60
2023/12/09 07:42:20;;;;;;;10.50;4.10;;;;;;;3.89;100.00;97013.31;5044534;28;20121;-59
2023/12/09 07:44:47;;;;;;;11.43;3.72;;;;;;;3.89;100.00;97018.66;5047324;28;20049;-61
2023/12/09 07:47:13;;;;;;;9.70;3.97;;;;;;;3.90;100.00;97014.94;5041682;28;20067;-59
2023/12/09 07:49:41;;;;;;;8.38;4.13;;;;;;;3.94;100.00;97018.03;5035409;28;20041;-60
2023/12/09 07:52:08;;;;;;;7.63;3.75;;;;;;;3.96;100.00;97018.59;5038485;28;20508;-59
2023/12/09 07:54:35;;;;;;;8.63;3.72;;;;;;;3.97;100.00;97007.69;5043466;28;20036;-60
2023/12/09 07:57:02;;;;;;;9.43;4.13;;;;;;;4.00;100.00;96996.53;5043676;28;20065;-60
2023/12/09 07:59:28;;;;;;;8.35;4.00;;;;;;;3.97;100.00;97002.31;5042569;28;20102;-59
2023/12/09 08:01:55;;;;;;;10.20;4.15;;;;;;;4.02;100.00;96993.66;5037425;28;20037;-61
2023/12/09 08:04:21;;;;;;;7.50;3.65;;;;;;;4.10;100.00;96989.84;5038578;28;20045;-60
2023/12/09 08:06:48;;;;;;;9.32;3.53;;;;;;;4.08;100.00;96989.25;5035166;28;20037;-61
2023/12/09 08:09:15;;;;;;;11.07;3.63;;;;;;;3.98;100.00;96987.88;5030935;28;20034;-58
2023/12/09 08:11:42;;;;;;;10.00;3.80;;;;;;;3.92;100.00;96983.41;5033749;28;20586;-61
2023/12/09 08:14:08;;;;;;;8.77;4.00;;;;;;;3.95;100.00;96982.16;5028760;28;20038;-60
2023/12/09 08:16:36;;;;;;;8.63;3.38;;;;;;;4.00;100.00;96976.94;5041329;28;20040;-60
2023/12/09 08:19:03;;;;;;;10.60;3.50;;;;;;;4.14;100.00;96985.69;5046742;28;20041;-61
2023/12/09 08:21:35;;;;;;;10.38;3.38;;;;;;;4.22;100.00;96993.47;5033125;28;20080;-61
2023/12/09 08:24:01;;;;;;;10.23;3.72;;;;;;;4.36;100.00;96993.34;5037252;28;20051;-61
2023/12/09 08:26:29;;;;;;;7.50;3.40;;;;;;;4.24;100.00;96985.19;5037354;28;20119;-61
2023/12/09 08:28:55;;;;;;;7.82;3.15;;;;;;;4.07;100.00;96985.75;5032601;28;20045;-60
2023/12/09 08:31:22;;;;;;;6.07;2.75;;;;;;;4.02;100.00;96980.25;5035366;28;20113;-60
2023/12/09 08:33:49;;;;;;;7.97;3.90;;;;;;;3.91;100.00;96973.75;5034611;28;20139;-56
2023/12/09 08:36:15;;;;;;;6.88;3.03;;;;;;;3.88;100.00;96974.97;5040379;28;20106;-58
2023/12/09 08:38:42;;;;;;;5.53;2.85;;;;;;;3.97;100.00;96975.53;5044863;28;20115;-59
2023/12/09 08:41:08;;;;;;;10.48;3.20;;;;;;;4.06;100.00;96972.59;5033021;28;20045;-54
2023/12/09 08:43:35;;;;;;;8.15;2.97;;;;;;;4.10;100.00;96982.66;5033122;28;20052;-61
2023/12/09 08:46:02;;;;;;;5.82;2.78;;;;;;;4.22;100.00;96988.09;5037958;28;20048;-61
2023/12/09 08:48:28;;;;;;;5.93;2.50;;;;;;;4.21;100.00;96993.69;5038081;28;20044;-61
2023/12/09 08:50:55;;;;;;;5.80;2.75;;;;;;;4.35;100.00;96997.84;5031698;28;20049;-61
2023/12/09 08:53:21;;;;;;;8.48;3.40;;;;;;;4.35;100.00;96997.06;5040078;28;20483;-61
2023/12/09 08:55:48;;;;;;;5.68;2.92;;;;;;;4.46;100.00;96985.59;5036418;28;20574;-60
2023/12/09 08:58:16;;;;;;;7.13;2.83;;;;;;;4.42;100.00;96968.31;5039587;28;20530;-61
2023/12/09 09:00:42;;;;;;;7.07;2.60;;;;;;;4.46;100.00;96963.34;5030963;28;20064;-61
2023/12/09 09:03:09;;;;;;;7.43;2.85;;;;;;;4.53;100.00;96956.03;5035989;28;20044;-61
2023/12/09 09:05:36;;;;;;;5.53;3.03;;;;;;;4.64;100.00;96947.25;5033548;28;20091;-60
2023/12/09 09:08:03;;;;;;;5.72;2.55;;;;;;;4.72;100.00;96948.78;5031603;28;20082;-60
2023/12/09 09:10:30;;;;;;;6.15;2.53;;;;;;;4.84;100.00;96942.69;5037560;28;20040;-61
2023/12/09 09:12:57;;;;;;;7.03;2.67;;;;;;;5.03;100.00;96930.88;5046738;28;20306;-60
2023/12/09 09:15:24;;;;;;;5.65;2.67;;;;;;;5.13;100.00;96932.19;5043396;28;20052;-60
2023/12/09 09:17:51;;;;;;;5.22;2.35;;;;;;;5.22;100.00;96936.19;5044743;28;20048;-60
2023/12/09 09:20:17;;;;;;;5.70;2.47;;;;;;;5.25;100.00;96943.81;5036480;28;20117;-61
2023/12/09 09:22:44;;;;;;;8.25;2.90;;;;;;;5.39;100.00;96948.97;5033275;28;20535;-61
2023/12/09 09:25:15;;;;;;;7.15;3.10;;;;;;;5.16;100.00;96939.81;5040727;28;20042;-61
2023/12/09 09:27:41;;;;;;;6.05;3.10;;;;;;;5.16;100.00;96939.81;5044741;28;20127;-61
2023/12/09 09:30:08;;;;;;;7.38;2.80;;;;;;;5.10;100.00;96936.16;5036683;28;20473;-61
2023/12/09 09:32:35;;;;;;;9.43;3.75;;;;;;;5.11;100.00;96928.91;5040625;28;20045;-61
2023/12/09 09:35:03;;;;;;;7.68;3.28;;;;;;;5.19;100.00;96915.16;5038784;28;20643;-61
2023/12/09 09:37:29;;;;;;;7.10;2.83;;;;;;;5.22;100.00;96914.72;5044359;28;20066;-61
2023/12/09 09:39:56;;;;;;;7.68;2.80;;;;;;;5.17;100.00;96912.72;5038131;28;20041;-61
2023/12/09 09:42:32;;;;;;;6.60;3.05;;;;;;;5.24;100.00;96912.66;5035420;28;20124;-61
2023/12/09 09:45:05;;;;;;;5.22;3.15;;;;;;;5.39;100.00;96900.66;5036001;28;20156;-61
2023/12/09 09:47:37;;;;;;;8.02;2.70;;;;;;;5.49;100.00;96906.25;5039285;28;20038;-61
2023/12/09 09:50:06;;;;;;;5.60;2.70;;;;;;;5.38;100.00;96905.19;5034655;28;20064;-60
2023/12/09 09:52:40;;;;;;;6.07;2.60;;;;;;;5.41;100.00;96902.06;5038608;28;20111;-60
2023/12/09 09:55:07;;;;;;;6.65;3.10;;;;;;;5.44;100.00;96890.84;5048843;28;20097;-60
2023/12/09 09:57:34;;;;;;;4.60;2.35;;;;;;;5.49;100.00;96887.47;5040066;28;20046;-60
2023/12/09 10:00:01;;;;;;;6.10;2.42;;;;;;;5.59;100.00;96881.53;5032458;28;20056;-61
2023/12/09 10:02:37;;;;;;;6.03;3.00;;;;;;;5.67;100.00;96885.72;5039074;28;20060;-60
2023/12/09 10:05:03;;;;;;;5.72;2.85;;;;;;;5.75;100.00;96881.91;5037311;28;20655;-61
2023/12/09 10:07:30;;;;;;;6.65;2.78;;;;;;;5.76;100.00;96875.47;5039191;28;20115;-61
2023/12/09 10:09:58;;;;;;;4.82;2.70;;;;;;;5.83;100.00;96870.81;5039727;28;20037;-61
2023/12/09 10:12:26;;;;;;;6.93;3.58;;;;;;;5.99;100.00;96855.84;5038171;28;20255;-61
2023/12/09 10:14:53;;;;;;;7.78;3.38;;;;;;;5.91;100.00;96846.28;5045027;28;20039;-61
2023/12/09 10:17:20;;;;;;;5.13;2.72;;;;;;;6.04;100.00;96847.13;5036043;28;20038;-61
2023/12/09 10:19:46;;;;;;;6.82;2.95;;;;;;;6.19;100.00;96836.66;5043274;28;20091;-61
2023/12/09 10:22:13;;;;;;;4.60;2.50;;;;;;;6.10;100.00;96828.16;5039695;28;20197;-61
2023/12/09 10:24:48;;;;;;;5.70;2.85;;;;;;;6.21;100.00;96821.13;5036117;28;20041;-61
2023/12/09 10:27:18;;;;;;;8.30;2.70;;;;;;;6.20;100.00;96829.44;5035335;28;20041;-61
2023/12/09 10:29:45;;;;;;;6.43;2.90;;;;;;;6.18;100.00;96826.97;5037689;28;20049;-61
2023/12/09 10:32:13;;;;;;;4.80;2.75;;;;;;;6.33;100.00;96829.16;5038124;28;20534;-61
2023/12/09 10:34:40;;;;;;;5.68;2.70;;;;;;;6.44;100.00;96819.44;5036597;28;20045;-62
2023/12/09 10:37:08;;;;;;;5.63;2.80;;;;;;;6.57;100.00;96818.34;5028284;28;20110;-59
2023/12/09 10:39:35;;;;;;;7.30;3.00;;;;;;;6.61;100.00;96822.19;5035784;28;20688;-62
2023/12/09 10:42:05;;;;;;;6.82;2.63;;;;;;;6.45;100.00;96813.00;5033023;28;20184;-61
2023/12/09 10:44:31;;;;;;;6.32;2.90;;;;;;;6.39;100.00;96803.19;5042380;28;20037;-62
2023/12/09 10:46:58;;;;;;;6.93;2.70;;;;;;;6.37;100.00;96805.28;5040018;28;20055;-61
2023/12/09 10:49:24;;;;;;;6.55;3.42;;;;;;;6.63;100.00;96797.72;5041452;28;20040;-60
2023/12/09 10:51:51;;;;;;;18.50;8.82;;;;;;;6.65;100.00;96795.63;5037649;28;20115;-60
2023/12/09 10:54:18;;;;;;;25.73;15.02;;;;;;;6.58;100.00;96790.38;5043564;28;20412;-60
2023/12/09 10:56:44;;;;;;;15.75;10.65;;;;;;;6.59;100.00;96792.00;5040512;28;20040;-62
2023/12/09 10:59:13;;;;;;;10.63;5.45;;;;;;;6.66;100.00;96766.84;5036688;28;20046;-60
2023/12/09 11:01:40;;;;;;;6.97;3.65;;;;;;;6.63;100.00;96766.25;5041242;28;20050;-61
2023/12/09 11:04:08;;;;;;;4.50;2.70;;;;;;;6.69;100.00;96753.72;5040815;28;20828;-63
2023/12/09 11:06:37;;;;;;;5.40;2.85;;;;;;;6.56;100.00;96744.06;5037512;28;20049;-60
2023/12/09 11:09:06;;;;;;;6.95;3.72;;;;;;;6.53;100.00;96732.97;5043482;28;20045;-60
2023/12/09 11:11:32;;;;;;;4.75;2.95;;;;;;;6.46;100.00;96722.38;5024276;28;20052;-60
2023/12/09 11:13:59;;;;;;;8.52;5.75;;;;;;;6.37;100.00;96703.13;5027418;28;20047;-61
2023/12/09 11:16:29;;;;;;;7.25;4.65;;;;;;;6.38;100.00;96700.19;5040179;28;20044;-60
2023/12/09 11:18:57;;;;;;;6.53;3.10;;;;;;;6.36;100.00;96694.25;5033218;28;20060;-60
2023/12/09 11:21:28;;;;;;;7.55;4.15;;;;;;;6.35;100.00;96679.16;5033021;28;20036;-62
2023/12/09 11:23:57;;;;;;;7.43;4.32;;;;;;;6.37;100.00;96666.28;5028792;28;20037;-61
2023/12/09 11:26:32;;;;;;;7.55;4.15;;;;;;;6.47;100.00;96670.22;5034669;28;20041;-60
2023/12/09 11:29:09;;;;;;;6.13;3.40;;;;;;;6.31;100.00;96666.44;5029423;28;20124;-60
2023/12/09 11:31:44;;;;;;;5.80;3.60;;;;;;;6.31;100.00;96653.00;5039200;28;20041;-60